sensor_id;sensor_type;location;lat;lon;timestamp;P1;durP1;ratioP1;P2;durP2;ratioP2
4365;SDS011;2196;47.422;9.656;2023-03-17T00:00:48;3.67;;;3.33;;
4365;SDS011;2196;47.422;9.656;2023-03-17T00:03:19;5.03;;;3.93;;
4365;SDS011;2196;47.422;9.656;2023-03-17T00:05:49;5.90;;;3.43;;
4365;SDS011;2196;47.422;9.656;2023-03-17T00:08:19;4.20;;;3.57;;
4365;SDS011;2196;47.422;9.656;2023-03-17T00:10:48;4.83;;;3.80;;
4365;SDS011;2196;47.422;9.656;2023-03-17T00:13:15;3.97;;;3.17;;
4365;SDS011;2196;47.422;9.656;2023-03-17T00:15:42;4.73;;;2.53;;
4365;SDS011;2196;47.422;9.656;2023-03-17T00:18:11;3.90;;;3.60;;
4365;SDS011;2196;47.422;9.656;2023-03-17T00:20:43;4.77;;;2.87;;
4365;SDS011;2196;47.422;9.656;2023-03-17T00:23:11;4.30;;;2.93;;
4365;SDS011;2196;47.422;9.656;2023-03-17T00:25:41;4.13;;;2.27;;
4365;SDS011;2196;47.422;9.656;2023-03-17T00:28:12;2.47;;;2.27;;
4365;SDS011;2196;47.422;9.656;2023-03-17T00:30:42;3.40;;;2.70;;
4365;SDS011;2196;47.422;9.656;2023-03-17T00:33:10;5.07;;;2.43;;
4365;SDS011;2196;47.422;9.656;2023-03-17T00:35:37;2.50;;;1.73;;
4365;SDS011;2196;47.422;9.656;2023-03-17T00:38:09;2.33;;;1.90;;
4365;SDS011;2196;47.422;9.656;2023-03-17T00:40:40;2.67;;;2.43;;
4365;SDS011;2196;47.422;9.656;2023-03-17T00:43:08;3.93;;;1.97;;
4365;SDS011;2196;47.422;9.656;2023-03-17T00:45:35;2.50;;;2.30;;
4365;SDS011;2196;47.422;9.656;2023-03-17T00:48:04;3.83;;;2.07;;
4365;SDS011;2196;47.422;9.656;2023-03-17T00:50:38;2.73;;;1.70;;
4365;SDS011;2196;47.422;9.656;2023-03-17T00:53:09;2.73;;;2.40;;
4365;SDS011;2196;47.422;9.656;2023-03-17T00:55:38;3.97;;;2.50;;
4365;SDS011;2196;47.422;9.656;2023-03-17T00:58:09;4.17;;;2.27;;
4365;SDS011;2196;47.422;9.656;2023-03-17T01:00:39;3.67;;;2.03;;
4365;SDS011;2196;47.422;9.656;2023-03-17T01:03:06;8.47;;;3.93;;
4365;SDS011;2196;47.422;9.656;2023-03-17T01:05:36;3.50;;;2.07;;
4365;SDS011;2196;47.422;9.656;2023-03-17T01:08:04;3.83;;;2.20;;
4365;SDS011;2196;47.422;9.656;2023-03-17T01:10:33;2.67;;;2.27;;
4365;SDS011;2196;47.422;9.656;2023-03-17T01:13:00;4.77;;;2.77;;
4365;SDS011;2196;47.422;9.656;2023-03-17T01:15:29;3.57;;;2.20;;
4365;SDS011;2196;47.422;9.656;2023-03-17T01:17:58;3.10;;;2.80;;
4365;SDS011;2196;47.422;9.656;2023-03-17T01:20:26;3.63;;;2.90;;
4365;SDS011;2196;47.422;9.656;2023-03-17T01:22:57;3.77;;;2.33;;
4365;SDS011;2196;47.422;9.656;2023-03-17T01:25:25;2.70;;;2.50;;
4365;SDS011;2196;47.422;9.656;2023-03-17T01:27:54;3.57;;;1.70;;
4365;SDS011;2196;47.422;9.656;2023-03-17T01:30:24;2.47;;;1.63;;
4365;SDS011;2196;47.422;9.656;2023-03-17T01:32:52;2.50;;;1.43;;
4365;SDS011;2196;47.422;9.656;2023-03-17T01:35:23;2.70;;;1.73;;
4365;SDS011;2196;47.422;9.656;2023-03-17T01:37:50;0.87;;;0.87;;
4365;SDS011;2196;47.422;9.656;2023-03-17T01:40:22;1.97;;;1.43;;
4365;SDS011;2196;47.422;9.656;2023-03-17T01:42:59;0.77;;;0.77;;
4365;SDS011;2196;47.422;9.656;2023-03-17T01:48:40;2.80;;;1.67;;
4365;SDS011;2196;47.422;9.656;2023-03-17T01:51:10;3.67;;;3.00;;
4365;SDS011;2196;47.422;9.656;2023-03-17T01:53:40;3.43;;;2.80;;
4365;SDS011;2196;47.422;9.656;2023-03-17T01:56:11;3.23;;;2.63;;
4365;SDS011;2196;47.422;9.656;2023-03-17T01:58:40;5.10;;;2.97;;
4365;SDS011;2196;47.422;9.656;2023-03-17T02:01:08;3.23;;;2.70;;
4365;SDS011;2196;47.422;9.656;2023-03-17T02:03:36;3.23;;;2.73;;
4365;SDS011;2196;47.422;9.656;2023-03-17T02:06:03;3.70;;;3.50;;
4365;SDS011;2196;47.422;9.656;2023-03-17T02:08:32;2.90;;;2.70;;
4365;SDS011;2196;47.422;9.656;2023-03-17T02:10:59;3.60;;;3.03;;
4365;SDS011;2196;47.422;9.656;2023-03-17T02:13:27;4.70;;;3.50;;
4365;SDS011;2196;47.422;9.656;2023-03-17T02:15:56;5.30;;;3.33;;
4365;SDS011;2196;47.422;9.656;2023-03-17T02:18:23;5.07;;;4.10;;
4365;SDS011;2196;47.422;9.656;2023-03-17T02:23:48;4.40;;;3.30;;
4365;SDS011;2196;47.422;9.656;2023-03-17T02:26:15;5.20;;;4.10;;
4365;SDS011;2196;47.422;9.656;2023-03-17T02:28:45;2.60;;;2.43;;
4365;SDS011;2196;47.422;9.656;2023-03-17T02:31:12;3.30;;;3.00;;
4365;SDS011;2196;47.422;9.656;2023-03-17T02:33:40;3.60;;;3.30;;
4365;SDS011;2196;47.422;9.656;2023-03-17T02:36:07;5.47;;;4.10;;
4365;SDS011;2196;47.422;9.656;2023-03-17T02:38:35;4.47;;;4.07;;
4365;SDS011;2196;47.422;9.656;2023-03-17T02:41:03;4.80;;;3.37;;
4365;SDS011;2196;47.422;9.656;2023-03-17T02:43:33;3.37;;;3.00;;
4365;SDS011;2196;47.422;9.656;2023-03-17T02:46:01;5.43;;;3.80;;
4365;SDS011;2196;47.422;9.656;2023-03-17T02:48:29;3.73;;;3.53;;
4365;SDS011;2196;47.422;9.656;2023-03-17T02:50:57;3.33;;;2.83;;
4365;SDS011;2196;47.422;9.656;2023-03-17T02:53:24;4.73;;;3.17;;
4365;SDS011;2196;47.422;9.656;2023-03-17T02:55:51;6.30;;;3.27;;
4365;SDS011;2196;47.422;9.656;2023-03-17T02:58:19;4.97;;;3.80;;
4365;SDS011;2196;47.422;9.656;2023-03-17T03:00:46;3.90;;;3.53;;
4365;SDS011;2196;47.422;9.656;2023-03-17T03:03:13;8.10;;;5.17;;
4365;SDS011;2196;47.422;9.656;2023-03-17T03:05:41;6.87;;;5.60;;
4365;SDS011;2196;47.422;9.656;2023-03-17T03:08:08;13.30;;;7.33;;
4365;SDS011;2196;47.422;9.656;2023-03-17T03:10:35;14.87;;;8.60;;
4365;SDS011;2196;47.422;9.656;2023-03-17T03:13:02;20.50;;;9.63;;
4365;SDS011;2196;47.422;9.656;2023-03-17T03:15:30;14.77;;;4.60;;
4365;SDS011;2196;47.422;9.656;2023-03-17T03:17:57;4.90;;;3.90;;
4365;SDS011;2196;47.422;9.656;2023-03-17T03:20:24;3.93;;;3.63;;
4365;SDS011;2196;47.422;9.656;2023-03-17T03:22:51;3.73;;;3.40;;
4365;SDS011;2196;47.422;9.656;2023-03-17T03:25:18;5.33;;;3.70;;
4365;SDS011;2196;47.422;9.656;2023-03-17T03:27:45;6.80;;;4.20;;
4365;SDS011;2196;47.422;9.656;2023-03-17T03:30:12;3.83;;;3.50;;
4365;SDS011;2196;47.422;9.656;2023-03-17T03:32:40;3.30;;;3.00;;
4365;SDS011;2196;47.422;9.656;2023-03-17T03:35:08;4.33;;;3.33;;
4365;SDS011;2196;47.422;9.656;2023-03-17T03:37:35;4.93;;;3.20;;
4365;SDS011;2196;47.422;9.656;2023-03-17T03:40:02;3.27;;;2.93;;
4365;SDS011;2196;47.422;9.656;2023-03-17T03:42:31;3.57;;;3.23;;
4365;SDS011;2196;47.422;9.656;2023-03-17T03:44:58;3.47;;;3.17;;
4365;SDS011;2196;47.422;9.656;2023-03-17T03:47:25;4.60;;;3.57;;
4365;SDS011;2196;47.422;9.656;2023-03-17T03:49:53;5.97;;;4.37;;
4365;SDS011;2196;47.422;9.656;2023-03-17T03:52:20;5.77;;;3.67;;
4365;SDS011;2196;47.422;9.656;2023-03-17T03:54:47;9.73;;;3.63;;
4365;SDS011;2196;47.422;9.656;2023-03-17T03:57:14;5.27;;;4.17;;
4365;SDS011;2196;47.422;9.656;2023-03-17T03:59:41;6.77;;;4.17;;
4365;SDS011;2196;47.422;9.656;2023-03-17T04:02:08;4.53;;;3.43;;
4365;SDS011;2196;47.422;9.656;2023-03-17T04:04:35;5.07;;;4.30;;
4365;SDS011;2196;47.422;9.656;2023-03-17T04:07:04;4.53;;;4.13;;
4365;SDS011;2196;47.422;9.656;2023-03-17T04:09:31;4.87;;;3.60;;
4365;SDS011;2196;47.422;9.656;2023-03-17T04:11:59;5.47;;;3.87;;
4365;SDS011;2196;47.422;9.656;2023-03-17T04:14:26;4.27;;;3.70;;
4365;SDS011;2196;47.422;9.656;2023-03-17T04:16:53;4.07;;;3.67;;
4365;SDS011;2196;47.422;9.656;2023-03-17T04:19:20;3.57;;;3.37;;
4365;SDS011;2196;47.422;9.656;2023-03-17T04:21:47;3.63;;;3.40;;
4365;SDS011;2196;47.422;9.656;2023-03-17T04:24:16;3.37;;;3.17;;
4365;SDS011;2196;47.422;9.656;2023-03-17T04:26:43;4.00;;;3.47;;
4365;SDS011;2196;47.422;9.656;2023-03-17T04:29:10;4.97;;;3.67;;
4365;SDS011;2196;47.422;9.656;2023-03-17T04:31:39;3.07;;;2.87;;
4365;SDS011;2196;47.422;9.656;2023-03-17T04:34:08;4.67;;;4.13;;
4365;SDS011;2196;47.422;9.656;2023-03-17T04:36:39;4.43;;;4.03;;
4365;SDS011;2196;47.422;9.656;2023-03-17T04:39:08;4.00;;;3.60;;
4365;SDS011;2196;47.422;9.656;2023-03-17T04:41:36;4.53;;;4.20;;
4365;SDS011;2196;47.422;9.656;2023-03-17T04:44:04;4.80;;;4.00;;
4365;SDS011;2196;47.422;9.656;2023-03-17T04:46:31;4.03;;;3.73;;
4365;SDS011;2196;47.422;9.656;2023-03-17T04:48:58;6.60;;;4.73;;
4365;SDS011;2196;47.422;9.656;2023-03-17T04:51:25;5.20;;;4.67;;
4365;SDS011;2196;47.422;9.656;2023-03-17T04:53:52;6.90;;;5.33;;
4365;SDS011;2196;47.422;9.656;2023-03-17T04:56:19;5.00;;;4.50;;
4365;SDS011;2196;47.422;9.656;2023-03-17T04:58:48;4.27;;;3.87;;
4365;SDS011;2196;47.422;9.656;2023-03-17T05:01:15;4.67;;;3.80;;
4365;SDS011;2196;47.422;9.656;2023-03-17T05:03:42;4.20;;;3.90;;
4365;SDS011;2196;47.422;9.656;2023-03-17T05:06:10;4.37;;;4.03;;
4365;SDS011;2196;47.422;9.656;2023-03-17T05:08:37;5.03;;;4.63;;
4365;SDS011;2196;47.422;9.656;2023-03-17T05:11:04;4.90;;;4.37;;
4365;SDS011;2196;47.422;9.656;2023-03-17T05:13:31;4.47;;;3.97;;
4365;SDS011;2196;47.422;9.656;2023-03-17T05:15:59;6.53;;;3.63;;
4365;SDS011;2196;47.422;9.656;2023-03-17T05:18:26;3.67;;;3.40;;
4365;SDS011;2196;47.422;9.656;2023-03-17T05:20:53;6.53;;;4.27;;
4365;SDS011;2196;47.422;9.656;2023-03-17T05:23:20;3.97;;;3.70;;
4365;SDS011;2196;47.422;9.656;2023-03-17T05:25:48;5.07;;;4.43;;
4365;SDS011;2196;47.422;9.656;2023-03-17T05:28:15;6.23;;;5.63;;
4365;SDS011;2196;47.422;9.656;2023-03-17T05:30:42;6.57;;;4.67;;
4365;SDS011;2196;47.422;9.656;2023-03-17T05:33:11;5.17;;;4.70;;
4365;SDS011;2196;47.422;9.656;2023-03-17T05:35:38;5.63;;;4.40;;
4365;SDS011;2196;47.422;9.656;2023-03-17T05:38:06;5.20;;;4.33;;
4365;SDS011;2196;47.422;9.656;2023-03-17T05:40:34;5.23;;;4.83;;
4365;SDS011;2196;47.422;9.656;2023-03-17T05:43:01;4.90;;;4.40;;
4365;SDS011;2196;47.422;9.656;2023-03-17T05:45:31;5.53;;;4.67;;
4365;SDS011;2196;47.422;9.656;2023-03-17T05:47:58;6.63;;;5.23;;
4365;SDS011;2196;47.422;9.656;2023-03-17T05:50:27;7.10;;;4.93;;
4365;SDS011;2196;47.422;9.656;2023-03-17T05:52:55;7.17;;;5.03;;
4365;SDS011;2196;47.422;9.656;2023-03-17T05:55:22;5.20;;;4.47;;
4365;SDS011;2196;47.422;9.656;2023-03-17T05:57:54;7.03;;;6.43;;
4365;SDS011;2196;47.422;9.656;2023-03-17T06:00:21;5.97;;;4.87;;
4365;SDS011;2196;47.422;9.656;2023-03-17T06:02:48;5.97;;;5.33;;
4365;SDS011;2196;47.422;9.656;2023-03-17T06:05:15;5.87;;;4.87;;
4365;SDS011;2196;47.422;9.656;2023-03-17T06:07:44;5.47;;;4.67;;
4365;SDS011;2196;47.422;9.656;2023-03-17T06:10:11;6.30;;;5.10;;
4365;SDS011;2196;47.422;9.656;2023-03-17T06:12:39;6.50;;;5.80;;
4365;SDS011;2196;47.422;9.656;2023-03-17T06:15:06;7.13;;;5.53;;
4365;SDS011;2196;47.422;9.656;2023-03-17T06:17:34;10.10;;;6.13;;
4365;SDS011;2196;47.422;9.656;2023-03-17T06:20:02;9.97;;;9.13;;
4365;SDS011;2196;47.422;9.656;2023-03-17T06:22:29;8.27;;;7.47;;
4365;SDS011;2196;47.422;9.656;2023-03-17T06:24:58;8.77;;;7.93;;
4365;SDS011;2196;47.422;9.656;2023-03-17T06:27:25;10.90;;;9.80;;
4365;SDS011;2196;47.422;9.656;2023-03-17T06:29:52;9.30;;;8.27;;
4365;SDS011;2196;47.422;9.656;2023-03-17T06:32:19;9.60;;;8.17;;
4365;SDS011;2196;47.422;9.656;2023-03-17T06:34:46;13.97;;;7.90;;
4365;SDS011;2196;47.422;9.656;2023-03-17T06:37:13;9.37;;;8.47;;
4365;SDS011;2196;47.422;9.656;2023-03-17T06:39:40;13.43;;;8.10;;
4365;SDS011;2196;47.422;9.656;2023-03-17T06:42:09;7.50;;;6.80;;
4365;SDS011;2196;47.422;9.656;2023-03-17T06:44:36;7.27;;;6.43;;
4365;SDS011;2196;47.422;9.656;2023-03-17T06:47:03;6.60;;;6.00;;
4365;SDS011;2196;47.422;9.656;2023-03-17T06:49:31;8.03;;;5.90;;
4365;SDS011;2196;47.422;9.656;2023-03-17T06:51:59;9.87;;;7.27;;
4365;SDS011;2196;47.422;9.656;2023-03-17T06:54:26;9.27;;;7.07;;
4365;SDS011;2196;47.422;9.656;2023-03-17T06:56:53;12.43;;;7.47;;
4365;SDS011;2196;47.422;9.656;2023-03-17T06:59:21;15.73;;;10.80;;
4365;SDS011;2196;47.422;9.656;2023-03-17T07:01:49;21.33;;;11.77;;
4365;SDS011;2196;47.422;9.656;2023-03-17T07:04:16;16.53;;;11.30;;
4365;SDS011;2196;47.422;9.656;2023-03-17T07:06:43;15.73;;;9.93;;
4365;SDS011;2196;47.422;9.656;2023-03-17T07:09:10;12.07;;;8.60;;
4365;SDS011;2196;47.422;9.656;2023-03-17T07:11:39;12.80;;;7.87;;
4365;SDS011;2196;47.422;9.656;2023-03-17T07:14:06;9.10;;;7.17;;
4365;SDS011;2196;47.422;9.656;2023-03-17T07:16:36;8.47;;;6.10;;
4365;SDS011;2196;47.422;9.656;2023-03-17T07:19:03;6.03;;;4.80;;
4365;SDS011;2196;47.422;9.656;2023-03-17T07:21:31;12.33;;;4.90;;
4365;SDS011;2196;47.422;9.656;2023-03-17T07:23:58;3.20;;;2.90;;
4365;SDS011;2196;47.422;9.656;2023-03-17T07:26:25;4.10;;;2.33;;
4365;SDS011;2196;47.422;9.656;2023-03-17T07:28:52;2.57;;;2.27;;
4365;SDS011;2196;47.422;9.656;2023-03-17T07:31:20;3.83;;;3.20;;
4365;SDS011;2196;47.422;9.656;2023-03-17T07:33:48;3.30;;;3.03;;
4365;SDS011;2196;47.422;9.656;2023-03-17T07:36:15;5.23;;;4.23;;
4365;SDS011;2196;47.422;9.656;2023-03-17T07:38:43;5.13;;;4.73;;
4365;SDS011;2196;47.422;9.656;2023-03-17T07:41:10;6.43;;;3.57;;
4365;SDS011;2196;47.422;9.656;2023-03-17T07:43:37;8.93;;;4.47;;
4365;SDS011;2196;47.422;9.656;2023-03-17T07:46:05;4.57;;;4.17;;
4365;SDS011;2196;47.422;9.656;2023-03-17T07:48:32;8.83;;;5.00;;
4365;SDS011;2196;47.422;9.656;2023-03-17T07:51:03;5.13;;;4.83;;
4365;SDS011;2196;47.422;9.656;2023-03-17T07:53:30;4.67;;;4.37;;
4365;SDS011;2196;47.422;9.656;2023-03-17T07:55:57;8.23;;;5.27;;
4365;SDS011;2196;47.422;9.656;2023-03-17T07:58:24;7.50;;;5.50;;
4365;SDS011;2196;47.422;9.656;2023-03-17T08:00:51;10.47;;;5.47;;
4365;SDS011;2196;47.422;9.656;2023-03-17T08:03:19;3.77;;;3.57;;
4365;SDS011;2196;47.422;9.656;2023-03-17T08:05:49;3.93;;;3.60;;
4365;SDS011;2196;47.422;9.656;2023-03-17T08:08:18;4.40;;;4.10;;
4365;SDS011;2196;47.422;9.656;2023-03-17T08:10:46;6.70;;;4.40;;
4365;SDS011;2196;47.422;9.656;2023-03-17T08:13:13;6.30;;;3.53;;
4365;SDS011;2196;47.422;9.656;2023-03-17T08:15:41;5.57;;;3.73;;
4365;SDS011;2196;47.422;9.656;2023-03-17T08:18:08;5.07;;;4.13;;
4365;SDS011;2196;47.422;9.656;2023-03-17T08:20:35;4.60;;;4.10;;
4365;SDS011;2196;47.422;9.656;2023-03-17T08:23:02;5.33;;;4.00;;
4365;SDS011;2196;47.422;9.656;2023-03-17T08:25:30;6.90;;;4.40;;
4365;SDS011;2196;47.422;9.656;2023-03-17T08:27:57;5.20;;;4.27;;
4365;SDS011;2196;47.422;9.656;2023-03-17T08:30:24;8.03;;;4.77;;
4365;SDS011;2196;47.422;9.656;2023-03-17T08:32:53;3.63;;;3.33;;
4365;SDS011;2196;47.422;9.656;2023-03-17T08:35:23;3.20;;;2.90;;
4365;SDS011;2196;47.422;9.656;2023-03-17T08:37:54;3.50;;;3.30;;
4365;SDS011;2196;47.422;9.656;2023-03-17T08:40:21;4.43;;;4.17;;
4365;SDS011;2196;47.422;9.656;2023-03-17T08:42:50;5.50;;;5.00;;
4365;SDS011;2196;47.422;9.656;2023-03-17T08:45:17;4.60;;;4.30;;
4365;SDS011;2196;47.422;9.656;2023-03-17T08:47:44;6.73;;;4.23;;
4365;SDS011;2196;47.422;9.656;2023-03-17T08:50:14;5.70;;;5.10;;
4365;SDS011;2196;47.422;9.656;2023-03-17T08:52:43;5.13;;;4.80;;
4365;SDS011;2196;47.422;9.656;2023-03-17T08:55:11;5.67;;;5.20;;
4365;SDS011;2196;47.422;9.656;2023-03-17T08:57:39;5.30;;;4.80;;
4365;SDS011;2196;47.422;9.656;2023-03-17T09:00:09;6.90;;;5.27;;
4365;SDS011;2196;47.422;9.656;2023-03-17T09:02:37;6.07;;;5.57;;
4365;SDS011;2196;47.422;9.656;2023-03-17T09:05:05;9.80;;;5.60;;
4365;SDS011;2196;47.422;9.656;2023-03-17T09:07:32;5.50;;;5.07;;
4365;SDS011;2196;47.422;9.656;2023-03-17T09:09:59;5.53;;;5.03;;
4365;SDS011;2196;47.422;9.656;2023-03-17T09:12:28;5.17;;;4.97;;
4365;SDS011;2196;47.422;9.656;2023-03-17T09:14:55;5.53;;;4.97;;
4365;SDS011;2196;47.422;9.656;2023-03-17T09:17:23;5.20;;;4.63;;
4365;SDS011;2196;47.422;9.656;2023-03-17T09:19:51;5.37;;;4.97;;
4365;SDS011;2196;47.422;9.656;2023-03-17T09:22:18;8.73;;;5.33;;
4365;SDS011;2196;47.422;9.656;2023-03-17T09:24:45;8.63;;;5.40;;
4365;SDS011;2196;47.422;9.656;2023-03-17T09:27:12;5.83;;;5.37;;
4365;SDS011;2196;47.422;9.656;2023-03-17T09:29:40;6.60;;;5.50;;
4365;SDS011;2196;47.422;9.656;2023-03-17T09:32:07;7.00;;;6.17;;
4365;SDS011;2196;47.422;9.656;2023-03-17T09:34:35;6.03;;;5.63;;
4365;SDS011;2196;47.422;9.656;2023-03-17T09:37:02;5.80;;;5.40;;
4365;SDS011;2196;47.422;9.656;2023-03-17T09:39:29;5.80;;;5.30;;
4365;SDS011;2196;47.422;9.656;2023-03-17T09:42:00;6.63;;;5.53;;
4365;SDS011;2196;47.422;9.656;2023-03-17T09:44:48;5.87;;;5.37;;
4365;SDS011;2196;47.422;9.656;2023-03-17T09:50:30;5.53;;;5.23;;
4365;SDS011;2196;47.422;9.656;2023-03-17T09:53:02;5.70;;;5.33;;
4365;SDS011;2196;47.422;9.656;2023-03-17T09:55:31;5.83;;;5.40;;
4365;SDS011;2196;47.422;9.656;2023-03-17T09:58:00;7.27;;;5.63;;
4365;SDS011;2196;47.422;9.656;2023-03-17T10:00:28;6.77;;;6.23;;
4365;SDS011;2196;47.422;9.656;2023-03-17T10:02:58;6.73;;;5.73;;
4365;SDS011;2196;47.422;9.656;2023-03-17T10:05:26;6.00;;;5.57;;
4365;SDS011;2196;47.422;9.656;2023-03-17T10:07:59;5.73;;;5.33;;
4365;SDS011;2196;47.422;9.656;2023-03-17T10:10:33;6.43;;;5.93;;
4365;SDS011;2196;47.422;9.656;2023-03-17T10:13:08;8.87;;;6.00;;
4365;SDS011;2196;47.422;9.656;2023-03-17T10:15:45;6.50;;;5.90;;
4365;SDS011;2196;47.422;9.656;2023-03-17T10:18:15;5.97;;;5.47;;
4365;SDS011;2196;47.422;9.656;2023-03-17T10:20:47;6.30;;;5.70;;
4365;SDS011;2196;47.422;9.656;2023-03-17T10:23:18;6.13;;;5.73;;
4365;SDS011;2196;47.422;9.656;2023-03-17T10:25:48;6.50;;;6.00;;
4365;SDS011;2196;47.422;9.656;2023-03-17T10:28:20;6.03;;;5.73;;
4365;SDS011;2196;47.422;9.656;2023-03-17T10:30:53;6.27;;;5.77;;
4365;SDS011;2196;47.422;9.656;2023-03-17T10:33:27;7.53;;;6.83;;
4365;SDS011;2196;47.422;9.656;2023-03-17T10:35:55;6.50;;;5.90;;
4365;SDS011;2196;47.422;9.656;2023-03-17T10:38:33;7.00;;;6.30;;
4365;SDS011;2196;47.422;9.656;2023-03-17T10:41:04;7.43;;;6.57;;
4365;SDS011;2196;47.422;9.656;2023-03-17T10:43:40;6.20;;;5.70;;
4365;SDS011;2196;47.422;9.656;2023-03-17T10:46:16;6.17;;;5.37;;
4365;SDS011;2196;47.422;9.656;2023-03-17T10:48:48;5.93;;;5.43;;
4365;SDS011;2196;47.422;9.656;2023-03-17T10:51:24;7.07;;;6.40;;
4365;SDS011;2196;47.422;9.656;2023-03-17T10:53:56;6.30;;;5.80;;
4365;SDS011;2196;47.422;9.656;2023-03-17T10:56:25;6.83;;;6.20;;
4365;SDS011;2196;47.422;9.656;2023-03-17T10:58:57;7.43;;;6.83;;
4365;SDS011;2196;47.422;9.656;2023-03-17T11:01:35;6.63;;;6.03;;
4365;SDS011;2196;47.422;9.656;2023-03-17T11:04:17;8.50;;;7.83;;
4365;SDS011;2196;47.422;9.656;2023-03-17T11:06:54;7.23;;;6.73;;
4365;SDS011;2196;47.422;9.656;2023-03-17T11:09:21;6.97;;;6.40;;
4365;SDS011;2196;47.422;9.656;2023-03-17T11:11:57;7.60;;;7.00;;
4365;SDS011;2196;47.422;9.656;2023-03-17T11:14:27;7.03;;;6.47;;
4365;SDS011;2196;47.422;9.656;2023-03-17T11:16:55;7.23;;;6.73;;
4365;SDS011;2196;47.422;9.656;2023-03-17T11:19:26;6.50;;;6.00;;
4365;SDS011;2196;47.422;9.656;2023-03-17T11:22:02;6.30;;;5.80;;
4365;SDS011;2196;47.422;9.656;2023-03-17T11:24:37;7.93;;;7.33;;
4365;SDS011;2196;47.422;9.656;2023-03-17T11:27:11;7.33;;;6.60;;
4365;SDS011;2196;47.422;9.656;2023-03-17T11:29:50;6.93;;;6.33;;
4365;SDS011;2196;47.422;9.656;2023-03-17T11:32:29;7.93;;;5.83;;
4365;SDS011;2196;47.422;9.656;2023-03-17T11:35:13;6.87;;;6.27;;
4365;SDS011;2196;47.422;9.656;2023-03-17T11:44:02;6.73;;;6.13;;
4365;SDS011;2196;47.422;9.656;2023-03-17T11:46:47;7.10;;;5.63;;
4365;SDS011;2196;47.422;9.656;2023-03-17T11:49:20;6.83;;;6.17;;
4365;SDS011;2196;47.422;9.656;2023-03-17T11:51:54;7.32;;;6.63;;
4365;SDS011;2196;47.422;9.656;2023-03-17T11:54:33;6.00;;;5.50;;
4365;SDS011;2196;47.422;9.656;2023-03-17T11:57:09;7.33;;;6.53;;
4365;SDS011;2196;47.422;9.656;2023-03-17T11:59:41;6.83;;;5.33;;
4365;SDS011;2196;47.422;9.656;2023-03-17T12:02:15;7.30;;;5.00;;
4365;SDS011;2196;47.422;9.656;2023-03-17T12:04:49;5.97;;;4.90;;
4365;SDS011;2196;47.422;9.656;2023-03-17T12:07:21;7.13;;;4.77;;
4365;SDS011;2196;47.422;9.656;2023-03-17T12:09:55;5.77;;;5.23;;
4365;SDS011;2196;47.422;9.656;2023-03-17T12:12:30;7.00;;;4.83;;
4365;SDS011;2196;47.422;9.656;2023-03-17T12:15:02;7.63;;;5.20;;
4365;SDS011;2196;47.422;9.656;2023-03-17T12:17:33;5.37;;;4.87;;
4365;SDS011;2196;47.422;9.656;2023-03-17T12:20:06;5.47;;;4.97;;
4365;SDS011;2196;47.422;9.656;2023-03-17T12:22:43;6.50;;;4.63;;
4365;SDS011;2196;47.422;9.656;2023-03-17T12:25:16;4.80;;;4.40;;
4365;SDS011;2196;47.422;9.656;2023-03-17T12:27:49;5.30;;;4.20;;
4365;SDS011;2196;47.422;9.656;2023-03-17T12:30:26;4.97;;;4.57;;
4365;SDS011;2196;47.422;9.656;2023-03-17T12:33:09;5.50;;;5.00;;
4365;SDS011;2196;47.422;9.656;2023-03-17T12:35:42;11.53;;;5.30;;
4365;SDS011;2196;47.422;9.656;2023-03-17T12:38:10;6.63;;;4.57;;
4365;SDS011;2196;47.422;9.656;2023-03-17T12:41:05;5.50;;;4.43;;
4365;SDS011;2196;47.422;9.656;2023-03-17T12:43:47;6.50;;;4.87;;
4365;SDS011;2196;47.422;9.656;2023-03-17T12:46:30;5.50;;;5.00;;
4365;SDS011;2196;47.422;9.656;2023-03-17T12:52:27;9.07;;;5.97;;
4365;SDS011;2196;47.422;9.656;2023-03-17T12:55:01;6.93;;;4.80;;
4365;SDS011;2196;47.422;9.656;2023-03-17T12:57:38;6.63;;;5.50;;
4365;SDS011;2196;47.422;9.656;2023-03-17T13:00:14;9.17;;;5.60;;
4365;SDS011;2196;47.422;9.656;2023-03-17T13:02:47;7.23;;;4.93;;
4365;SDS011;2196;47.422;9.656;2023-03-17T13:05:27;4.87;;;4.33;;
4365;SDS011;2196;47.422;9.656;2023-03-17T13:07:59;5.47;;;4.50;;
4365;SDS011;2196;47.422;9.656;2023-03-17T13:10:38;5.63;;;4.97;;
4365;SDS011;2196;47.422;9.656;2023-03-17T13:13:12;6.37;;;5.53;;
4365;SDS011;2196;47.422;9.656;2023-03-17T13:16:02;7.07;;;5.33;;
4365;SDS011;2196;47.422;9.656;2023-03-17T13:21:23;7.97;;;6.40;;
4365;SDS011;2196;47.422;9.656;2023-03-17T13:23:56;5.93;;;5.07;;
4365;SDS011;2196;47.422;9.656;2023-03-17T13:26:50;5.60;;;4.50;;
4365;SDS011;2196;47.422;9.656;2023-03-17T13:29:26;7.87;;;5.23;;
4365;SDS011;2196;47.422;9.656;2023-03-17T13:35:17;7.53;;;5.37;;
4365;SDS011;2196;47.422;9.656;2023-03-17T13:41:08;6.97;;;5.47;;
4365;SDS011;2196;47.422;9.656;2023-03-17T13:43:54;7.57;;;5.20;;
4365;SDS011;2196;47.422;9.656;2023-03-17T13:46:39;6.47;;;5.47;;
4365;SDS011;2196;47.422;9.656;2023-03-17T13:49:17;9.50;;;5.93;;
4365;SDS011;2196;47.422;9.656;2023-03-17T13:51:53;7.13;;;5.27;;
4365;SDS011;2196;47.422;9.656;2023-03-17T13:54:29;7.23;;;4.77;;
4365;SDS011;2196;47.422;9.656;2023-03-17T13:56:58;10.97;;;4.73;;
4365;SDS011;2196;47.422;9.656;2023-03-17T13:59:58;6.97;;;5.03;;
4365;SDS011;2196;47.422;9.656;2023-03-17T14:02:31;9.73;;;5.63;;
4365;SDS011;2196;47.422;9.656;2023-03-17T14:05:02;5.87;;;4.60;;
4365;SDS011;2196;47.422;9.656;2023-03-17T14:07:38;7.97;;;5.87;;
4365;SDS011;2196;47.422;9.656;2023-03-17T14:10:12;11.60;;;4.43;;
4365;SDS011;2196;47.422;9.656;2023-03-17T14:12:43;6.63;;;4.20;;
4365;SDS011;2196;47.422;9.656;2023-03-17T14:15:16;6.90;;;5.10;;
4365;SDS011;2196;47.422;9.656;2023-03-17T14:17:49;8.97;;;5.57;;
4365;SDS011;2196;47.422;9.656;2023-03-17T14:20:22;7.33;;;4.43;;
4365;SDS011;2196;47.422;9.656;2023-03-17T14:22:52;5.67;;;3.87;;
4365;SDS011;2196;47.422;9.656;2023-03-17T14:25:24;7.20;;;4.63;;
4365;SDS011;2196;47.422;9.656;2023-03-17T14:27:57;5.70;;;3.77;;
4365;SDS011;2196;47.422;9.656;2023-03-17T14:30:25;5.47;;;4.37;;
4365;SDS011;2196;47.422;9.656;2023-03-17T14:32:57;4.37;;;3.50;;
4365;SDS011;2196;47.422;9.656;2023-03-17T14:35:29;6.03;;;4.07;;
4365;SDS011;2196;47.422;9.656;2023-03-17T14:37:56;5.80;;;3.70;;
4365;SDS011;2196;47.422;9.656;2023-03-17T14:40:25;4.77;;;3.90;;
4365;SDS011;2196;47.422;9.656;2023-03-17T14:42:56;4.63;;;4.20;;
4365;SDS011;2196;47.422;9.656;2023-03-17T14:45:27;4.50;;;4.07;;
4365;SDS011;2196;47.422;9.656;2023-03-17T14:47:57;5.03;;;4.53;;
4365;SDS011;2196;47.422;9.656;2023-03-17T14:50:29;8.17;;;5.03;;
4365;SDS011;2196;47.422;9.656;2023-03-17T14:52:57;8.37;;;5.70;;
4365;SDS011;2196;47.422;9.656;2023-03-17T14:55:27;6.33;;;5.30;;
4365;SDS011;2196;47.422;9.656;2023-03-17T14:58:04;8.30;;;5.53;;
4365;SDS011;2196;47.422;9.656;2023-03-17T15:00:33;7.90;;;5.93;;
4365;SDS011;2196;47.422;9.656;2023-03-17T15:03:03;7.57;;;5.50;;
4365;SDS011;2196;47.422;9.656;2023-03-17T15:05:43;9.63;;;6.30;;
4365;SDS011;2196;47.422;9.656;2023-03-17T15:08:37;11.47;;;7.23;;
4365;SDS011;2196;47.422;9.656;2023-03-17T15:11:06;9.47;;;6.67;;
4365;SDS011;2196;47.422;9.656;2023-03-17T15:13:40;8.27;;;5.87;;
4365;SDS011;2196;47.422;9.656;2023-03-17T15:16:14;7.93;;;6.00;;
4365;SDS011;2196;47.422;9.656;2023-03-17T15:18:46;8.53;;;6.60;;
4365;SDS011;2196;47.422;9.656;2023-03-17T15:21:34;9.63;;;6.93;;
4365;SDS011;2196;47.422;9.656;2023-03-17T15:24:04;15.53;;;8.27;;
4365;SDS011;2196;47.422;9.656;2023-03-17T15:26:44;12.37;;;8.17;;
4365;SDS011;2196;47.422;9.656;2023-03-17T15:29:11;16.13;;;11.43;;
4365;SDS011;2196;47.422;9.656;2023-03-17T15:31:38;9.63;;;8.03;;
4365;SDS011;2196;47.422;9.656;2023-03-17T15:34:08;11.73;;;9.30;;
4365;SDS011;2196;47.422;9.656;2023-03-17T15:36:36;13.17;;;8.87;;
4365;SDS011;2196;47.422;9.656;2023-03-17T15:39:04;11.60;;;9.50;;
4365;SDS011;2196;47.422;9.656;2023-03-17T15:41:31;16.57;;;9.70;;
4365;SDS011;2196;47.422;9.656;2023-03-17T15:43:58;11.07;;;7.50;;
4365;SDS011;2196;47.422;9.656;2023-03-17T15:46:26;15.13;;;9.93;;
4365;SDS011;2196;47.422;9.656;2023-03-17T15:48:56;13.40;;;8.60;;
4365;SDS011;2196;47.422;9.656;2023-03-17T15:51:24;13.07;;;8.57;;
4365;SDS011;2196;47.422;9.656;2023-03-17T15:53:51;13.90;;;11.03;;
4365;SDS011;2196;47.422;9.656;2023-03-17T15:56:19;12.47;;;8.70;;
4365;SDS011;2196;47.422;9.656;2023-03-17T15:58:47;12.80;;;8.50;;
4365;SDS011;2196;47.422;9.656;2023-03-17T16:01:16;11.87;;;8.03;;